createdAt,value
2016-09-30T12:19:33.942Z,1011.44
2016-09-30T12:20:34.644Z,1011.51
2016-09-30T12:21:35.393Z,1011.42
2016-09-30T12:22:36.098Z,1011.41
2016-09-30T12:23:37.018Z,1011.39
2016-09-30T12:24:37.710Z,1011.4
2016-09-30T12:25:38.453Z,1011.42
2016-09-30T12:26:39.136Z,1011.41
2016-09-30T12:27:39.866Z,1011.36
2016-09-30T12:28:40.593Z,1011.4
2016-09-30T12:29:41.315Z,1011.3
2016-09-30T12:30:42.005Z,1011.33
2016-09-30T12:31:42.683Z,1011.38
2016-09-30T12:32:43.444Z,1011.32
2016-09-30T12:33:44.122Z,1011.36
2016-09-30T12:34:44.793Z,1011.33
2016-09-30T12:35:45.484Z,1011.36
2016-09-30T12:36:46.178Z,1011.32
2016-09-30T12:37:46.878Z,1011.34
2016-09-30T12:38:47.605Z,1011.32
2016-09-30T12:39:48.288Z,1011.32
2016-09-30T12:40:48.997Z,1011.36
2016-09-30T12:41:49.694Z,1011.38
2016-09-30T12:42:50.397Z,1011.41
2016-09-30T12:43:51.111Z,1011.47
2016-09-30T12:44:51.825Z,1011.42
2016-09-30T12:45:52.533Z,1011.45
2016-09-30T12:46:53.270Z,1011.44
2016-09-30T12:47:53.961Z,1011.45
2016-09-30T12:48:54.643Z,1011.37
2016-09-30T12:49:55.344Z,1011.42
2016-09-30T12:50:56.065Z,1011.43
2016-09-30T12:51:56.747Z,1011.47
2016-09-30T12:52:57.473Z,1011.52
2016-09-30T12:53:58.185Z,1011.5
2016-09-30T12:54:58.858Z,1011.53
2016-09-30T12:55:59.551Z,1011.52
2016-09-30T12:57:00.253Z,1011.49
2016-09-30T12:58:00.946Z,1011.52
2016-09-30T12:59:01.618Z,1011.49
2016-09-30T13:00:02.309Z,1011.51
2016-09-30T13:01:02.998Z,1011.58
2016-09-30T13:02:03.703Z,1011.49
2016-09-30T13:03:04.387Z,1011.55
2016-09-30T13:04:05.064Z,1011.52
2016-09-30T13:05:05.787Z,1011.55
2016-09-30T13:06:06.474Z,1011.58
2016-09-30T13:07:07.173Z,1011.54
2016-09-30T13:08:07.857Z,1011.54
2016-09-30T13:09:08.532Z,1011.47
2016-09-30T13:10:09.233Z,1011.5
2016-09-30T13:11:09.962Z,1011.5
2016-09-30T13:12:10.658Z,1011.51
2016-09-30T13:13:11.350Z,1011.5
2016-09-30T13:14:12.039Z,1011.5
2016-09-30T13:15:12.716Z,1011.49
2016-09-30T13:16:13.386Z,1011.46
2016-09-30T13:17:14.065Z,1011.46
2016-09-30T13:18:14.767Z,1011.45
2016-09-30T13:19:15.462Z,1011.45
2016-09-30T13:20:16.147Z,1011.41
2016-09-30T13:21:16.850Z,1011.39
2016-09-30T13:22:17.539Z,1011.33
2016-09-30T13:23:18.218Z,1011.32
2016-09-30T13:24:18.951Z,1011.33
2016-09-30T13:25:19.598Z,1011.3
2016-09-30T13:26:20.321Z,1011.32
2016-09-30T13:27:20.992Z,1011.3
2016-09-30T13:28:21.672Z,1011.29
2016-09-30T13:29:22.353Z,1011.26
2016-09-30T13:30:23.061Z,1011.28
2016-09-30T13:31:25.079Z,1011.28
2016-09-30T13:32:26.894Z,1011.25
2016-09-30T13:33:26.907Z,1011.26
2016-09-30T13:34:27.609Z,1011.24
2016-09-30T13:35:28.300Z,1011.28
2016-09-30T13:36:29.047Z,1011.24
2016-09-30T13:37:29.764Z,1011.27
2016-09-30T13:38:30.485Z,1011.24
2016-09-30T13:39:31.166Z,1011.26
2016-09-30T13:40:31.845Z,1011.24
2016-09-30T13:41:32.521Z,1011.25
2016-09-30T13:42:33.235Z,1011.22
2016-09-30T13:43:33.921Z,1011.24
2016-09-30T13:44:34.628Z,1011.25
2016-09-30T13:45:35.423Z,1011.28
2016-09-30T13:46:36.139Z,1011.21
2016-09-30T13:47:36.819Z,1011.23
2016-09-30T13:48:37.524Z,1011.19
2016-09-30T13:49:38.204Z,1011.21
2016-09-30T13:50:38.886Z,1011.29
2016-09-30T13:51:39.575Z,1011.26
2016-09-30T13:52:40.279Z,1011.29
2016-09-30T13:53:40.989Z,1011.28
2016-09-30T13:54:41.687Z,1011.32
2016-09-30T13:55:42.356Z,1011.34
2016-09-30T13:56:43.055Z,1011.36
2016-09-30T13:57:43.740Z,1011.39
2016-09-30T13:58:44.416Z,1011.39
2016-09-30T13:59:45.111Z,1011.44
2016-09-30T14:00:45.837Z,1011.45
2016-09-30T14:01:46.541Z,1011.41
2016-09-30T14:02:47.254Z,1011.36
2016-09-30T14:03:47.928Z,1011.4
2016-09-30T14:04:48.639Z,1011.38
2016-09-30T14:05:49.314Z,1011.36
2016-09-30T14:06:50.009Z,1011.36
2016-09-30T14:07:50.708Z,1011.34
2016-09-30T14:08:51.412Z,1011.34
2016-09-30T14:09:52.165Z,1011.34
2016-09-30T14:10:52.852Z,1011.37
2016-09-30T14:11:53.551Z,1011.34
2016-09-30T14:12:54.247Z,1011.34
2016-09-30T14:13:54.936Z,1011.32
2016-09-30T14:14:55.614Z,1011.32
2016-09-30T14:15:56.287Z,1011.28
2016-09-30T14:16:56.986Z,1011.32
2016-09-30T14:17:57.698Z,1011.31
2016-09-30T14:18:58.386Z,1011.29
2016-09-30T14:19:59.080Z,1011.3
2016-09-30T14:20:59.766Z,1011.32
2016-09-30T14:22:00.453Z,1011.33
2016-09-30T14:23:01.133Z,1011.28
2016-09-30T14:24:01.808Z,1011.28
2016-09-30T14:25:02.503Z,1011.31
2016-09-30T14:26:03.186Z,1011.32
2016-09-30T14:27:03.865Z,1011.28
2016-09-30T14:28:04.556Z,1011.28
2016-09-30T14:29:05.238Z,1011.33
2016-09-30T14:30:06.057Z,1011.3
2016-09-30T14:31:06.737Z,1011.33
2016-09-30T14:32:07.424Z,1011.31
2016-09-30T14:33:08.114Z,1011.23
2016-09-30T14:34:08.825Z,1011.31
2016-09-30T14:35:09.539Z,1011.3
2016-09-30T14:36:10.244Z,1011.32
2016-09-30T14:37:10.947Z,1011.36
2016-09-30T14:38:11.653Z,1011.33
2016-09-30T14:39:12.351Z,1011.39
2016-09-30T14:40:13.160Z,1011.44
2016-09-30T14:41:15.046Z,1011.44
2016-09-30T14:42:15.719Z,1011.48
2016-09-30T14:43:17.503Z,1011.45
2016-09-30T14:44:18.194Z,1011.42
2016-09-30T14:45:18.887Z,1011.47
2016-09-30T14:46:19.561Z,1011.46
2016-09-30T14:47:20.318Z,1011.41
2016-09-30T14:48:21.593Z,1011.43
2016-09-30T14:49:22.282Z,1011.47
2016-09-30T14:50:22.981Z,1011.46
2016-09-30T14:51:23.656Z,1011.49
2016-09-30T14:52:24.322Z,1011.45
2016-09-30T14:53:25.015Z,1011.4
2016-09-30T14:54:25.707Z,1011.45
2016-09-30T14:55:26.429Z,1011.46
2016-09-30T14:56:27.226Z,1011.46
2016-09-30T14:57:27.932Z,1011.47
2016-09-30T14:58:28.612Z,1011.53
2016-09-30T14:59:29.302Z,1011.55
2016-09-30T15:00:29.979Z,1011.72
2016-09-30T15:01:30.701Z,1011.79
2016-09-30T15:02:31.380Z,1011.87
2016-09-30T15:03:32.070Z,1011.84
2016-09-30T15:04:32.768Z,1011.84
2016-09-30T15:05:33.472Z,1011.9
2016-09-30T15:06:34.179Z,1011.87
2016-09-30T15:07:34.887Z,1011.89
2016-09-30T15:08:35.573Z,1011.93
2016-09-30T15:09:36.251Z,1011.95
2016-09-30T15:10:36.952Z,1011.97
2016-09-30T15:11:37.653Z,1011.84
2016-09-30T15:12:38.328Z,1011.91
2016-09-30T15:13:39.022Z,1011.94
2016-09-30T15:14:39.780Z,1011.87
2016-09-30T15:15:40.468Z,1011.95
2016-09-30T15:16:41.157Z,1011.95
2016-09-30T15:17:41.846Z,1011.93
2016-09-30T15:18:42.546Z,1011.95
2016-09-30T15:19:43.228Z,1011.99
2016-09-30T15:20:43.931Z,1011.96
2016-09-30T15:21:44.624Z,1011.94
2016-09-30T15:22:45.310Z,1011.99
2016-09-30T15:23:46.001Z,1011.94
2016-09-30T15:24:46.731Z,1011.96
2016-09-30T15:25:47.420Z,1011.98
2016-09-30T15:26:48.093Z,1011.96
2016-09-30T15:27:48.887Z,1012.01
2016-09-30T15:28:49.578Z,1012.02
2016-09-30T15:29:50.259Z,1012.08
2016-09-30T15:30:50.943Z,1012.07
2016-09-30T15:31:51.621Z,1012.13
2016-09-30T15:32:52.351Z,1012.09
2016-09-30T15:33:53.048Z,1012.12
2016-09-30T15:34:53.725Z,1012.2
2016-09-30T15:35:54.404Z,1012.2
2016-09-30T15:36:55.127Z,1012.18
2016-09-30T15:37:55.833Z,1012.16
2016-09-30T15:38:56.515Z,1012.18
2016-09-30T15:39:57.195Z,1012.19
2016-09-30T15:40:59.446Z,1012.19
2016-09-30T15:41:59.447Z,1012.2
2016-09-30T15:43:00.138Z,1012.17
2016-09-30T15:44:00.843Z,1012.12
2016-09-30T15:45:01.521Z,1012.05
2016-09-30T15:46:02.232Z,1012
2016-09-30T15:47:02.914Z,1011.99
2016-09-30T15:48:03.623Z,1011.97
2016-09-30T15:49:04.310Z,1011.95
2016-09-30T15:50:05.002Z,1011.97
2016-09-30T15:51:05.688Z,1011.88
2016-09-30T15:52:06.417Z,1011.93
2016-09-30T15:53:07.105Z,1011.94
2016-09-30T15:54:07.811Z,1011.96
2016-09-30T15:55:08.493Z,1011.9
2016-09-30T15:56:10.679Z,1011.91
2016-09-30T15:57:10.382Z,1011.87
2016-09-30T15:58:11.047Z,1011.93
2016-09-30T15:59:11.738Z,1011.93
2016-09-30T16:00:12.477Z,1011.96
2016-09-30T16:01:15.113Z,1011.91
2016-09-30T16:02:15.485Z,1011.91
2016-09-30T16:03:16.206Z,1011.93
2016-09-30T16:04:16.904Z,1011.95
2016-09-30T16:05:17.601Z,1011.92
2016-09-30T16:06:18.341Z,1011.89
2016-09-30T16:07:19.167Z,1011.87
2016-09-30T16:08:20.672Z,1011.84
2016-09-30T16:09:26.149Z,1011.84
2016-09-30T16:10:24.345Z,1011.85
2016-09-30T16:11:27.234Z,1011.83
2016-09-30T16:12:28.029Z,1011.88
2016-09-30T16:13:28.717Z,1011.85
2016-09-30T16:14:29.421Z,1011.87
2016-09-30T16:15:30.101Z,1011.92
2016-09-30T16:16:30.796Z,1011.93
2016-09-30T16:17:31.490Z,1011.92
2016-09-30T16:18:32.176Z,1011.92
2016-09-30T16:19:32.878Z,1011.89
2016-09-30T16:20:33.569Z,1012.01
2016-09-30T16:21:34.264Z,1012.02
2016-09-30T16:22:34.969Z,1011.97
2016-09-30T16:23:35.655Z,1012.03
2016-09-30T16:24:36.343Z,1011.98
2016-09-30T16:25:37.054Z,1011.98
2016-09-30T16:26:37.747Z,1011.98
2016-09-30T16:27:38.466Z,1011.96
2016-09-30T16:28:39.185Z,1011.95
2016-09-30T16:29:39.877Z,1011.94
2016-09-30T16:30:40.571Z,1011.98
2016-09-30T16:31:41.292Z,1012.03
2016-09-30T16:32:41.984Z,1012.02
2016-09-30T16:33:42.673Z,1012.05
2016-09-30T16:34:43.379Z,1012.01
2016-09-30T16:35:44.076Z,1011.99
2016-09-30T16:36:44.784Z,1012.04
2016-09-30T16:37:45.568Z,1012.01
2016-09-30T16:38:46.289Z,1012.01
2016-09-30T16:39:47.008Z,1012.02
2016-09-30T16:40:47.706Z,1012
2016-09-30T16:41:48.394Z,1012.06
2016-09-30T16:42:49.129Z,1012.03
2016-09-30T16:43:49.805Z,1012.05
2016-09-30T16:44:50.506Z,1012.11
2016-09-30T16:45:51.197Z,1012.14
2016-09-30T16:46:51.910Z,1012.09
2016-09-30T16:47:52.597Z,1012.11
2016-09-30T16:48:53.317Z,1012.16
2016-09-30T16:49:54.024Z,1012.17
2016-09-30T16:50:54.718Z,1012.17
2016-09-30T16:51:55.413Z,1012.21
2016-09-30T16:52:56.098Z,1012.25
2016-09-30T16:53:56.785Z,1012.29
2016-09-30T16:54:57.480Z,1012.29
2016-09-30T16:55:58.166Z,1012.3
2016-09-30T16:56:58.862Z,1012.34
2016-09-30T16:57:59.537Z,1012.34
2016-09-30T16:59:00.232Z,1012.37
2016-09-30T17:00:00.928Z,1012.33
2016-09-30T17:01:01.669Z,1012.34
2016-09-30T17:02:02.329Z,1012.37
2016-09-30T17:03:03.096Z,1012.37
2016-09-30T17:04:03.783Z,1012.37
2016-09-30T17:05:04.495Z,1012.39
2016-09-30T17:06:05.182Z,1012.35
2016-09-30T17:07:05.897Z,1012.33
2016-09-30T17:08:06.570Z,1012.32
2016-09-30T17:09:07.266Z,1012.33
2016-09-30T17:10:07.940Z,1012.36
2016-09-30T17:11:08.634Z,1012.39
2016-09-30T17:12:09.320Z,1012.4
2016-09-30T17:13:10.988Z,1012.38
2016-09-30T17:14:11.855Z,1012.41
2016-09-30T17:15:12.577Z,1012.43
2016-09-30T17:16:13.275Z,1012.48
2016-09-30T17:17:13.995Z,1012.48
2016-09-30T17:18:14.945Z,1012.47
2016-09-30T17:19:15.657Z,1012.51
2016-09-30T17:20:16.805Z,1012.47
2016-09-30T17:21:17.490Z,1012.45
2016-09-30T17:22:18.184Z,1012.49
2016-09-30T17:23:18.923Z,1012.51
2016-09-30T17:24:19.605Z,1012.54
2016-09-30T17:25:20.297Z,1012.56
2016-09-30T17:26:20.973Z,1012.54
2016-09-30T17:27:21.661Z,1012.53
2016-09-30T17:28:22.340Z,1012.55
2016-09-30T17:29:23.027Z,1012.56
2016-09-30T17:30:23.731Z,1012.58
2016-09-30T17:31:24.413Z,1012.57
2016-09-30T17:32:25.096Z,1012.61
2016-09-30T17:33:25.855Z,1012.61
2016-09-30T17:34:26.546Z,1012.61
2016-09-30T17:35:27.212Z,1012.62
2016-09-30T17:36:27.938Z,1012.61
2016-09-30T17:37:28.624Z,1012.6
2016-09-30T17:38:29.329Z,1012.59
2016-09-30T17:39:30.011Z,1012.59
2016-09-30T17:40:30.743Z,1012.54
2016-09-30T17:41:31.433Z,1012.57
2016-09-30T17:42:32.135Z,1012.55
2016-09-30T17:43:32.827Z,1012.55
2016-09-30T17:44:33.505Z,1012.6
2016-09-30T17:45:34.196Z,1012.6
2016-09-30T17:46:34.886Z,1012.6
2016-09-30T17:47:35.572Z,1012.59
2016-09-30T17:48:36.261Z,1012.6
2016-09-30T17:49:37.012Z,1012.61
2016-09-30T17:50:37.762Z,1012.59
2016-09-30T17:51:38.459Z,1012.58
2016-09-30T17:52:39.134Z,1012.54
2016-09-30T17:53:39.869Z,1012.54
2016-09-30T17:54:40.551Z,1012.53
2016-09-30T17:55:41.239Z,1012.54
2016-09-30T17:56:41.936Z,1012.47
2016-09-30T17:57:42.628Z,1012.53
2016-09-30T17:58:43.323Z,1012.56
2016-09-30T17:59:44.017Z,1012.53
2016-09-30T18:00:44.717Z,1012.54
2016-09-30T18:01:45.441Z,1012.57
2016-09-30T18:02:46.139Z,1012.52
2016-09-30T18:03:46.849Z,1012.52
2016-09-30T18:04:47.566Z,1012.54
2016-09-30T18:05:48.375Z,1012.57
2016-09-30T18:06:49.083Z,1012.57
2016-09-30T18:07:49.776Z,1012.56
2016-09-30T18:08:50.492Z,1012.53
2016-09-30T18:09:51.186Z,1012.56
2016-09-30T18:10:51.867Z,1012.53
2016-09-30T18:11:52.536Z,1012.55
2016-09-30T18:12:53.216Z,1012.58
2016-09-30T18:13:54.057Z,1012.54
2016-09-30T18:14:54.765Z,1012.52
2016-09-30T18:15:55.478Z,1012.51
2016-09-30T18:16:56.166Z,1012.54
2016-09-30T18:17:56.873Z,1012.53
2016-09-30T18:18:57.634Z,1012.55
2016-09-30T18:19:58.404Z,1012.56
2016-09-30T18:20:59.101Z,1012.6
2016-09-30T18:21:59.782Z,1012.61
2016-09-30T18:23:00.470Z,1012.6
2016-09-30T18:24:01.158Z,1012.58
2016-09-30T18:25:01.851Z,1012.64
2016-09-30T18:26:02.542Z,1012.63
2016-09-30T18:27:03.239Z,1012.66
2016-09-30T18:28:03.937Z,1012.67
2016-09-30T18:29:04.626Z,1012.66
2016-09-30T18:30:05.306Z,1012.71
2016-09-30T18:31:06.000Z,1012.69
2016-09-30T18:32:06.733Z,1012.72
2016-09-30T18:33:07.469Z,1012.69
2016-09-30T18:34:08.310Z,1012.7
2016-09-30T18:35:09.079Z,1012.72
2016-09-30T18:36:09.810Z,1012.7
2016-09-30T18:37:11.559Z,1012.73
2016-09-30T18:38:12.431Z,1012.74
2016-09-30T18:39:13.107Z,1012.75
2016-09-30T18:40:14.002Z,1012.79
2016-09-30T18:41:15.016Z,1012.76
2016-09-30T18:42:16.096Z,1012.76
2016-09-30T18:43:17.419Z,1012.75
2016-09-30T18:44:18.327Z,1012.78
2016-09-30T18:45:19.019Z,1012.76
2016-09-30T18:46:19.711Z,1012.77
2016-09-30T18:47:20.418Z,1012.73
2016-09-30T18:48:21.365Z,1012.71
2016-09-30T18:49:22.176Z,1012.7
2016-09-30T18:50:23.670Z,1012.74
2016-09-30T18:51:24.604Z,1012.72
2016-09-30T18:52:25.380Z,1012.76
2016-09-30T18:53:26.466Z,1012.72
2016-09-30T18:54:27.062Z,1012.74
2016-09-30T18:55:28.026Z,1012.71
2016-09-30T18:56:28.851Z,1012.7
2016-09-30T18:57:29.590Z,1012.76
2016-09-30T18:58:30.825Z,1012.68
2016-09-30T18:59:31.779Z,1012.72
2016-09-30T19:00:32.513Z,1012.68
2016-09-30T19:01:33.243Z,1012.73
2016-09-30T19:02:34.399Z,1012.72
2016-09-30T19:03:35.678Z,1012.7
2016-09-30T19:04:36.416Z,1012.71
2016-09-30T19:05:37.157Z,1012.74
2016-09-30T19:06:37.872Z,1012.73
2016-09-30T19:07:38.575Z,1012.72
2016-09-30T19:08:39.258Z,1012.75
2016-09-30T19:09:39.946Z,1012.74
2016-09-30T19:10:40.643Z,1012.71
2016-09-30T19:11:41.375Z,1012.72
2016-09-30T19:12:42.104Z,1012.71
2016-09-30T19:13:42.849Z,1012.69
2016-09-30T19:14:43.571Z,1012.69
2016-09-30T19:15:44.276Z,1012.68
2016-09-30T19:16:44.993Z,1012.72
2016-09-30T19:17:45.706Z,1012.73
2016-09-30T19:18:46.418Z,1012.75
2016-09-30T19:19:47.128Z,1012.75
2016-09-30T19:20:47.837Z,1012.76
2016-09-30T19:21:48.592Z,1012.81
2016-09-30T19:22:49.305Z,1012.83
2016-09-30T19:23:50.090Z,1012.83
2016-09-30T19:24:50.826Z,1012.86
2016-09-30T19:25:51.562Z,1012.86
2016-09-30T19:26:52.237Z,1012.91
2016-09-30T19:27:52.924Z,1012.87
2016-09-30T19:28:53.633Z,1012.92
2016-09-30T19:29:54.343Z,1012.96
2016-09-30T19:30:55.083Z,1012.94
2016-09-30T19:31:55.821Z,1012.98
2016-09-30T19:32:56.595Z,1012.96
2016-09-30T19:33:57.343Z,1012.96
2016-09-30T19:34:58.066Z,1012.97
2016-09-30T19:35:58.769Z,1012.96
2016-09-30T19:36:59.477Z,1012.91
2016-09-30T19:38:00.179Z,1012.95
2016-09-30T19:39:00.890Z,1012.94
2016-09-30T19:40:01.582Z,1012.96
2016-09-30T19:41:02.301Z,1012.94
2016-09-30T19:42:03.013Z,1012.97
2016-09-30T19:43:03.723Z,1012.97
2016-09-30T19:44:04.425Z,1013
2016-09-30T19:45:05.132Z,1012.98
2016-09-30T19:46:06.093Z,1013.02
2016-09-30T19:47:07.218Z,1013.02
2016-09-30T19:48:07.940Z,1013.04
2016-09-30T19:49:08.618Z,1013.08
2016-09-30T19:50:09.361Z,1013.08
2016-09-30T19:51:10.146Z,1013.13
2016-09-30T19:52:10.853Z,1013.1
2016-09-30T19:53:11.582Z,1013.12
2016-09-30T19:54:12.284Z,1013.14
2016-09-30T19:55:13.054Z,1013.17
2016-09-30T19:56:13.861Z,1013.14
2016-09-30T19:57:14.598Z,1013.15
2016-09-30T19:58:15.347Z,1013.13
2016-09-30T19:59:16.065Z,1013.14
2016-09-30T20:00:16.822Z,1013.1
2016-09-30T20:01:17.615Z,1013.1
2016-09-30T20:02:18.398Z,1013.13
2016-09-30T20:03:19.279Z,1013.1
2016-09-30T20:04:20.109Z,1013.13
2016-09-30T20:05:20.946Z,1013.12
2016-09-30T20:06:21.786Z,1013.14
2016-09-30T20:07:22.699Z,1013.15
2016-09-30T20:08:23.487Z,1013.16
2016-09-30T20:09:24.349Z,1013.17
2016-09-30T20:10:25.148Z,1013.13
2016-09-30T20:11:26.133Z,1013.19
2016-09-30T20:12:27.009Z,1013.14
2016-09-30T20:13:27.806Z,1013.15
2016-09-30T20:14:28.734Z,1013.17
2016-09-30T20:15:29.679Z,1013.14
2016-09-30T20:16:30.531Z,1013.15
2016-09-30T20:17:31.272Z,1013.18
2016-09-30T20:18:32.056Z,1013.19
2016-09-30T20:19:32.835Z,1013.18
2016-09-30T20:20:33.797Z,1013.2
2016-09-30T20:21:34.457Z,1013.22
2016-09-30T20:22:35.160Z,1013.24
2016-09-30T20:23:35.854Z,1013.32
2016-09-30T20:24:36.557Z,1013.27
2016-09-30T20:25:37.266Z,1013.31
2016-09-30T20:26:37.969Z,1013.27
2016-09-30T20:27:38.667Z,1013.26
2016-09-30T20:28:39.357Z,1013.25
2016-09-30T20:29:40.079Z,1013.22
2016-09-30T20:30:40.792Z,1013.19
2016-09-30T20:31:41.504Z,1013.21
2016-09-30T20:32:42.255Z,1013.22
2016-09-30T20:33:42.997Z,1013.18
2016-09-30T20:34:43.694Z,1013.2
2016-09-30T20:35:44.390Z,1013.15
2016-09-30T20:36:45.100Z,1013.16
2016-09-30T20:37:45.784Z,1013.19
2016-09-30T20:38:46.516Z,1013.2
2016-09-30T20:39:47.238Z,1013.15
2016-09-30T20:40:47.943Z,1013.17
2016-09-30T20:41:48.676Z,1013.18
2016-09-30T20:42:49.503Z,1013.19
2016-09-30T20:43:50.132Z,1013.12
2016-09-30T20:44:50.856Z,1013.11
2016-09-30T20:45:51.642Z,1013.08
2016-09-30T20:46:52.308Z,1013.09
2016-09-30T20:47:53.048Z,1013.1
2016-09-30T20:48:53.783Z,1013.1
2016-09-30T20:49:54.482Z,1013.1
2016-09-30T20:50:55.180Z,1013.12
2016-09-30T20:51:55.889Z,1013.13
2016-09-30T20:52:56.580Z,1013.18
2016-09-30T20:53:57.288Z,1013.19
2016-09-30T20:54:57.989Z,1013.19
2016-09-30T20:55:58.716Z,1013.21
2016-09-30T20:56:59.425Z,1013.21
2016-09-30T20:58:00.149Z,1013.24
2016-09-30T20:59:00.846Z,1013.19
2016-09-30T21:00:01.546Z,1013.2
2016-09-30T21:01:02.230Z,1013.24
2016-09-30T21:02:02.943Z,1013.26
2016-09-30T21:03:03.663Z,1013.25
2016-09-30T21:04:04.364Z,1013.24
2016-09-30T21:05:05.072Z,1013.27
2016-09-30T21:06:05.753Z,1013.27
2016-09-30T21:07:06.454Z,1013.31
2016-09-30T21:08:07.162Z,1013.31
2016-09-30T21:09:07.839Z,1013.32
2016-09-30T21:10:08.544Z,1013.34
2016-09-30T21:11:09.322Z,1013.34
2016-09-30T21:12:10.089Z,1013.34
2016-09-30T21:13:10.769Z,1013.32
2016-09-30T21:14:11.469Z,1013.29
2016-09-30T21:15:12.158Z,1013.28
2016-09-30T21:16:13.126Z,1013.3
2016-09-30T21:17:14.013Z,1013.25
2016-09-30T21:18:14.733Z,1013.31
2016-09-30T21:19:15.432Z,1013.24
2016-09-30T21:20:16.173Z,1013.25
2016-09-30T21:21:16.886Z,1013.19
2016-09-30T21:22:17.572Z,1013.17
2016-09-30T21:23:18.291Z,1013.12
2016-09-30T21:24:19.014Z,1013.08
2016-09-30T21:25:19.706Z,1013.11
2016-09-30T21:26:20.409Z,1013.07
2016-09-30T21:27:21.123Z,1013.05
2016-09-30T21:28:21.884Z,1013.01
2016-09-30T21:29:22.582Z,1012.96
2016-09-30T21:30:23.407Z,1012.94
2016-09-30T21:31:24.166Z,1012.95
2016-09-30T21:32:24.897Z,1012.94
2016-09-30T21:33:25.696Z,1012.92
2016-09-30T21:34:26.489Z,1012.98
2016-09-30T21:35:27.206Z,1012.94
2016-09-30T21:36:27.928Z,1012.96
2016-09-30T21:37:28.653Z,1012.98
2016-09-30T21:38:29.375Z,1012.95
2016-09-30T21:39:30.051Z,1013.02
2016-09-30T21:40:30.785Z,1012.98
2016-09-30T21:41:31.470Z,1012.98
2016-09-30T21:42:32.232Z,1013.02
2016-09-30T21:43:32.942Z,1012.96
2016-09-30T21:44:33.710Z,1012.93
2016-09-30T21:45:35.199Z,1012.98
2016-09-30T21:46:35.875Z,1012.95
2016-09-30T21:47:36.580Z,1012.95
2016-09-30T21:48:37.281Z,1012.93
2016-09-30T21:49:38.019Z,1012.92
2016-09-30T21:50:38.715Z,1012.93
2016-09-30T21:51:39.423Z,1012.93
2016-09-30T21:52:40.131Z,1012.86
2016-09-30T21:53:41.103Z,1012.85
2016-09-30T21:54:42.640Z,1012.84
2016-09-30T21:55:43.353Z,1012.89
2016-09-30T21:56:44.065Z,1012.85
2016-09-30T21:57:44.835Z,1012.89
2016-09-30T21:58:45.539Z,1012.94
2016-09-30T21:59:46.256Z,1012.93
2016-09-30T22:00:46.946Z,1012.98
2016-09-30T22:01:47.687Z,1012.99
2016-09-30T22:02:48.448Z,1012.98
2016-09-30T22:03:49.184Z,1012.97
2016-09-30T22:04:49.902Z,1012.99
2016-09-30T22:05:50.597Z,1012.96
2016-09-30T22:06:51.293Z,1012.97
2016-09-30T22:07:52.131Z,1012.94
2016-09-30T22:08:52.877Z,1012.95
2016-09-30T22:09:53.592Z,1012.93
2016-09-30T22:10:54.342Z,1012.95
2016-09-30T22:11:55.059Z,1012.92
2016-09-30T22:12:55.775Z,1012.92
2016-09-30T22:13:56.478Z,1012.9
2016-09-30T22:14:57.185Z,1012.9
2016-09-30T22:15:57.862Z,1012.89
2016-09-30T22:16:58.574Z,1012.87
2016-09-30T22:17:59.273Z,1012.8
2016-09-30T22:18:59.989Z,1012.76
2016-09-30T22:20:00.679Z,1012.81
2016-09-30T22:21:01.407Z,1012.76
2016-09-30T22:22:02.151Z,1012.76
2016-09-30T22:23:02.893Z,1012.83
2016-09-30T22:24:03.614Z,1012.84
2016-09-30T22:25:04.392Z,1012.82
2016-09-30T22:26:05.128Z,1012.82
2016-09-30T22:27:05.882Z,1012.76
2016-09-30T22:28:06.568Z,1012.77
2016-09-30T22:29:07.270Z,1012.75
2016-09-30T22:30:08.012Z,1012.73
2016-09-30T22:31:08.720Z,1012.75
2016-09-30T22:32:09.429Z,1012.72
2016-09-30T22:33:10.105Z,1012.76
2016-09-30T22:34:10.833Z,1012.76
2016-09-30T22:35:11.540Z,1012.77
2016-09-30T22:36:12.270Z,1012.82
2016-09-30T22:37:12.946Z,1012.84
2016-09-30T22:38:13.643Z,1012.77
2016-09-30T22:39:14.332Z,1012.79
2016-09-30T22:40:15.011Z,1012.81
2016-09-30T22:41:15.700Z,1012.81
2016-09-30T22:42:16.405Z,1012.84
2016-09-30T22:43:17.077Z,1012.85
2016-09-30T22:44:17.756Z,1012.85
2016-09-30T22:45:18.444Z,1012.87
2016-09-30T22:46:19.138Z,1012.85
2016-09-30T22:47:19.815Z,1012.78
2016-09-30T22:48:20.487Z,1012.79
2016-09-30T22:49:21.180Z,1012.73
2016-09-30T22:50:21.869Z,1012.74
2016-09-30T22:51:22.558Z,1012.77
2016-09-30T22:52:23.250Z,1012.75
2016-09-30T22:53:23.950Z,1012.8
2016-09-30T22:54:24.629Z,1012.8
2016-09-30T22:55:25.333Z,1012.81
2016-09-30T22:56:26.019Z,1012.76
2016-09-30T22:57:26.702Z,1012.71
2016-09-30T22:58:27.401Z,1012.74
2016-09-30T22:59:28.102Z,1012.75
2016-09-30T23:00:28.768Z,1012.76
2016-09-30T23:01:29.453Z,1012.82
2016-09-30T23:02:30.145Z,1012.79
2016-09-30T23:03:30.827Z,1012.77
2016-09-30T23:04:31.544Z,1012.77
2016-09-30T23:05:32.255Z,1012.79
2016-09-30T23:06:32.979Z,1012.73
2016-09-30T23:07:33.681Z,1012.76
2016-09-30T23:08:34.353Z,1012.74
2016-09-30T23:09:35.035Z,1012.77
2016-09-30T23:10:35.734Z,1012.78
2016-09-30T23:11:36.472Z,1012.75
2016-09-30T23:12:37.178Z,1012.74
2016-09-30T23:13:37.871Z,1012.75
2016-09-30T23:14:38.561Z,1012.71
2016-09-30T23:15:39.245Z,1012.72
2016-09-30T23:16:39.934Z,1012.74
2016-09-30T23:17:40.629Z,1012.7
2016-09-30T23:18:41.314Z,1012.7
2016-09-30T23:19:41.992Z,1012.68
2016-09-30T23:20:42.696Z,1012.7
2016-09-30T23:21:43.394Z,1012.72
2016-09-30T23:22:44.091Z,1012.68
2016-09-30T23:23:44.798Z,1012.71
2016-09-30T23:24:45.549Z,1012.71
2016-09-30T23:25:46.237Z,1012.68
2016-09-30T23:26:46.929Z,1012.65
2016-09-30T23:27:47.668Z,1012.68
2016-09-30T23:28:48.352Z,1012.68
2016-09-30T23:29:49.060Z,1012.69
2016-09-30T23:30:49.725Z,1012.68
2016-09-30T23:31:50.396Z,1012.73
2016-09-30T23:32:51.065Z,1012.74
2016-09-30T23:33:51.740Z,1012.74
2016-09-30T23:34:52.411Z,1012.73
2016-09-30T23:35:53.086Z,1012.76
2016-09-30T23:36:53.756Z,1012.7
2016-09-30T23:37:54.435Z,1012.71
2016-09-30T23:38:55.120Z,1012.66
2016-09-30T23:39:55.803Z,1012.64
2016-09-30T23:40:56.480Z,1012.63
2016-09-30T23:41:57.176Z,1012.63
2016-09-30T23:42:57.910Z,1012.63
2016-09-30T23:43:58.574Z,1012.62
2016-09-30T23:44:59.288Z,1012.64
2016-09-30T23:45:59.966Z,1012.6
2016-09-30T23:47:00.635Z,1012.66
2016-09-30T23:48:01.312Z,1012.64
2016-09-30T23:49:02.000Z,1012.62
2016-09-30T23:50:02.695Z,1012.6
2016-09-30T23:51:03.383Z,1012.59
2016-09-30T23:52:04.092Z,1012.54
2016-09-30T23:53:04.775Z,1012.55
2016-09-30T23:54:05.468Z,1012.53
2016-09-30T23:55:06.155Z,1012.54
2016-09-30T23:56:06.834Z,1012.54
2016-09-30T23:57:07.528Z,1012.52
2016-09-30T23:58:08.219Z,1012.52
2016-09-30T23:59:08.915Z,1012.52
